Ater, Texas
Current Conditions -  °F | °C
As of 5:15 AM on Saturday 01 Nov 2014 (Local Time) from KGOP Reporting Station
Clear Clear  
Wind Chill: 43°   Ceiling: Unl
Heat Index: 43°   Visibility: 10mi
Dew Point: 34°   Wind: 0mph
Humidity: 70%   Direction: NA
Pressure: 30.39"   Gusts: NA
Location:  31.392°N, 97.7452°W
Report Text: KGOP 011015Z AUTO 00000KT 10SM CLR 06/01 A3039 RMK AO2
Loading
Personal Weather Stations






























Interactive Weather Map
Tropical Storm Tracking
New forecast layout! Learn more

10-Day Weather Forecast

Advertisements
Track Severe Weather on mobile